createdAt,value
2022-12-01T00:01:38.312Z,101904.20
2022-12-01T00:04:45.033Z,101899.64
2022-12-01T00:07:50.684Z,101899.64
2022-12-01T00:10:59.385Z,101896.77
2022-12-01T00:14:05.471Z,101896.41
2022-12-01T00:17:10.839Z,101891.18
2022-12-01T00:20:16.362Z,101887.33
2022-12-01T00:23:21.667Z,101890.12
2022-12-01T00:26:27.747Z,101888.61
2022-12-01T00:29:34.183Z,101885.48
2022-12-01T00:32:39.330Z,101885.04
2022-12-01T00:35:47.984Z,101888.13
2022-12-01T00:38:54.585Z,101884.30
2022-12-01T00:42:00.008Z,101883.62
2022-12-01T00:45:05.966Z,101880.79
2022-12-01T00:48:11.320Z,101882.34
2022-12-01T00:51:16.618Z,101879.89
2022-12-01T00:54:21.869Z,101881.89
2022-12-01T00:57:27.156Z,101880.29
2022-12-01T01:00:32.649Z,101878.71
2022-12-01T01:03:38.120Z,101879.46
2022-12-01T01:06:43.728Z,101881.08
2022-12-01T01:09:49.342Z,101876.92
2022-12-01T01:12:54.883Z,101879.98
2022-12-01T01:16:01.344Z,101877.12
2022-12-01T01:19:06.708Z,101874.39
2022-12-01T01:22:11.967Z,101877.69
2022-12-01T01:25:20.128Z,101875.27
2022-12-01T01:28:25.423Z,101878.02
2022-12-01T01:31:31.855Z,101873.54
2022-12-01T01:34:37.094Z,101870.59
2022-12-01T01:37:42.369Z,101872.74
2022-12-01T01:40:48.231Z,101870.62
2022-12-01T01:43:54.957Z,101870.84
2022-12-01T01:47:00.131Z,101869.48
2022-12-01T01:50:09.225Z,101870.21
2022-12-01T01:53:15.881Z,101870.78
2022-12-01T01:56:21.548Z,101869.98
2022-12-01T01:59:29.260Z,101874.45
2022-12-01T02:02:36.809Z,101870.52
2022-12-01T02:05:44.869Z,101868.17
2022-12-01T02:08:50.195Z,101873.77
2022-12-01T02:12:11.479Z,101870.10
2022-12-01T02:15:22.988Z,101870.55
2022-12-01T02:18:35.126Z,101874.02
2022-12-01T02:21:46.476Z,101875.95
2022-12-01T02:25:04.740Z,101878.70
2022-12-01T02:28:18.174Z,101879.38
2022-12-01T02:31:24.930Z,101878.20
2022-12-01T02:34:35.790Z,101877.78
2022-12-01T02:37:45.430Z,101878.52
2022-12-01T02:40:55.478Z,101876.45
2022-12-01T02:44:04.399Z,101877.16
2022-12-01T02:47:12.248Z,101876.39
2022-12-01T02:50:17.916Z,101875.58
2022-12-01T02:53:23.343Z,101879.92
2022-12-01T02:56:28.763Z,101879.95
2022-12-01T02:59:34.124Z,101880.96
2022-12-01T03:02:49.755Z,101881.30
2022-12-01T03:06:01.951Z,101875.00
2022-12-01T03:09:16.834Z,101873.98
2022-12-01T03:12:25.502Z,101872.92
2022-12-01T03:15:35.866Z,101867.49
2022-12-01T03:18:44.014Z,101864.73
2022-12-01T03:21:53.128Z,101864.62
2022-12-01T03:24:58.986Z,101859.98
2022-12-01T03:28:22.222Z,101861.02
2022-12-01T03:31:36.236Z,101861.83
2022-12-01T03:34:44.702Z,101858.60
2022-12-01T03:37:52.849Z,101857.34
2022-12-01T03:40:59.738Z,101859.83
2022-12-01T03:44:09.099Z,101855.84
2022-12-01T03:47:17.460Z,101859.70
2022-12-01T03:50:26.046Z,101854.33
2022-12-01T03:53:35.542Z,101850.22
2022-12-01T03:56:50.504Z,101848.34
2022-12-01T03:59:56.014Z,101850.81
2022-12-01T04:03:03.340Z,101846.96
2022-12-01T04:06:09.094Z,101845.98
2022-12-01T04:09:14.946Z,101845.34
2022-12-01T04:12:33.140Z,101843.28
2022-12-01T04:15:38.854Z,101845.50
2022-12-01T04:18:44.318Z,101844.23
2022-12-01T04:21:49.642Z,101847.12
2022-12-01T04:24:55.067Z,101846.46
2022-12-01T04:28:00.309Z,101847.00
2022-12-01T04:31:05.842Z,101843.45
2022-12-01T04:34:11.704Z,101849.11
2022-12-01T04:37:20.175Z,101847.52
2022-12-01T04:40:25.623Z,101850.45
2022-12-01T04:43:31.071Z,101845.61
2022-12-01T04:46:38.685Z,101849.86
2022-12-01T04:49:43.965Z,101850.17
2022-12-01T04:52:49.406Z,101852.48
2022-12-01T04:55:57.191Z,101849.08
2022-12-01T04:59:02.651Z,101856.11
2022-12-01T05:02:08.206Z,101858.77
2022-12-01T05:05:15.465Z,101859.36
2022-12-01T05:08:20.903Z,101858.41
2022-12-01T05:11:26.835Z,101858.27
2022-12-01T05:14:32.116Z,101859.18
2022-12-01T05:17:37.389Z,101857.77
2022-12-01T05:21:01.025Z,101859.38
2022-12-01T05:24:07.265Z,101856.96
2022-12-01T05:27:13.515Z,101854.05
2022-12-01T05:30:24.357Z,101856.99
2022-12-01T05:33:33.746Z,101853.09
2022-12-01T05:36:39.062Z,101855.88
2022-12-01T05:39:44.494Z,101854.09
2022-12-01T05:42:49.868Z,101854.14
2022-12-01T05:45:55.401Z,101858.09
2022-12-01T05:49:00.772Z,101859.77
2022-12-01T05:52:06.389Z,101863.69
2022-12-01T05:55:11.890Z,101866.63
2022-12-01T05:58:17.389Z,101870.95
2022-12-01T06:01:22.677Z,101870.26
2022-12-01T06:04:28.071Z,101868.45
2022-12-01T06:07:34.772Z,101867.50
2022-12-01T06:10:40.224Z,101867.43
2022-12-01T06:13:45.510Z,101869.36
2022-12-01T06:16:50.910Z,101873.94
2022-12-01T06:19:56.250Z,101874.50
2022-12-01T06:23:01.561Z,101875.80
2022-12-01T06:26:07.034Z,101878.08
2022-12-01T06:29:12.427Z,101877.94
2022-12-01T06:32:18.913Z,101884.42
2022-12-01T06:35:24.378Z,101884.11
2022-12-01T06:38:30.870Z,101886.73
2022-12-01T06:41:36.216Z,101898.02
2022-12-01T06:44:41.583Z,101894.03
2022-12-01T06:47:48.561Z,101898.20
2022-12-01T06:50:57.704Z,101899.92
2022-12-01T06:54:05.662Z,101900.65
2022-12-01T06:57:11.424Z,101900.19
2022-12-01T07:00:17.961Z,101906.60
2022-12-01T07:03:24.140Z,101907.29
2022-12-01T07:06:30.279Z,101902.48
2022-12-01T07:09:35.732Z,101905.93
2022-12-01T07:12:41.118Z,101907.55
2022-12-01T07:15:46.509Z,101906.73
2022-12-01T07:18:52.939Z,101906.19
2022-12-01T07:21:58.346Z,101909.64
2022-12-01T07:25:04.131Z,101909.17
2022-12-01T07:28:09.660Z,101912.73
2022-12-01T07:31:16.092Z,101915.73
2022-12-01T07:34:21.692Z,101918.72
2022-12-01T07:37:26.925Z,101916.76
2022-12-01T07:40:32.515Z,101914.77
2022-12-01T07:43:37.625Z,101915.99
2022-12-01T07:46:43.081Z,101914.17
2022-12-01T07:49:48.728Z,101915.29
2022-12-01T07:52:54.192Z,101917.06
2022-12-01T07:56:02.103Z,101922.58
2022-12-01T07:59:12.180Z,101920.64
2022-12-01T08:02:17.570Z,101919.08
2022-12-01T08:05:23.100Z,101920.48
2022-12-01T08:08:31.327Z,101922.89
2022-12-01T08:11:36.774Z,101923.20
2022-12-01T08:14:42.201Z,101927.89
2022-12-01T08:17:49.894Z,101927.79
2022-12-01T08:20:57.349Z,101929.46
2022-12-01T08:24:02.752Z,101930.83
2022-12-01T08:27:07.955Z,101931.02
2022-12-01T08:30:14.507Z,101928.94
2022-12-01T08:33:19.974Z,101929.73
2022-12-01T08:36:27.384Z,101928.45
2022-12-01T08:39:32.791Z,101929.38
2022-12-01T08:42:38.364Z,101928.48
2022-12-01T08:45:43.672Z,101927.48
2022-12-01T08:48:48.940Z,101927.91
2022-12-01T08:51:56.481Z,101927.67
2022-12-01T08:55:02.367Z,101926.52
2022-12-01T08:58:07.768Z,101924.36
2022-12-01T09:01:14.749Z,101927.91
2022-12-01T09:04:20.923Z,101923.10
2022-12-01T09:07:27.012Z,101921.43
2022-12-01T09:10:33.724Z,101919.98
2022-12-01T09:13:40.169Z,101920.10
2022-12-01T09:16:46.330Z,101918.98
2022-12-01T09:19:51.764Z,101915.70
2022-12-01T09:22:57.204Z,101914.13
2022-12-01T09:26:02.616Z,101908.00
2022-12-01T09:29:08.636Z,101909.86
2022-12-01T09:32:13.900Z,101905.60
2022-12-01T09:35:23.252Z,101902.15
2022-12-01T09:38:29.869Z,101900.02
2022-12-01T09:41:36.618Z,101897.02
2022-12-01T09:44:49.219Z,101896.23
2022-12-01T09:47:56.224Z,101893.80
2022-12-01T09:51:02.022Z,101891.06
2022-12-01T09:54:07.919Z,101888.84
2022-12-01T09:57:17.168Z,101888.27
2022-12-01T10:00:23.853Z,101879.52
2022-12-01T10:03:34.152Z,101870.90
2022-12-01T10:06:41.611Z,101870.64
2022-12-01T10:09:53.890Z,101872.67
2022-12-01T10:13:00.562Z,101872.83
2022-12-01T10:16:10.768Z,101868.25
2022-12-01T10:19:19.429Z,101863.27
2022-12-01T10:22:36.124Z,101866.36
2022-12-01T10:25:47.034Z,101862.60
2022-12-01T10:28:58.523Z,101862.98
2022-12-01T10:32:06.503Z,101860.19
2022-12-01T10:35:16.599Z,101858.90
2022-12-01T10:38:26.927Z,101859.86
2022-12-01T10:41:34.094Z,101855.09
2022-12-01T10:44:40.284Z,101854.63
2022-12-01T10:47:59.379Z,101854.95
2022-12-01T10:51:17.053Z,101850.20
2022-12-01T10:54:25.540Z,101849.28
2022-12-01T10:57:32.132Z,101849.88
2022-12-01T11:04:08.067Z,101845.86
2022-12-01T11:07:24.123Z,101846.64
2022-12-01T11:10:30.755Z,101845.52
2022-12-01T11:13:37.834Z,101842.02
2022-12-01T11:16:44.837Z,101842.77
2022-12-01T11:19:50.369Z,101842.72
2022-12-01T11:23:13.596Z,101837.05
2022-12-01T11:26:22.467Z,101840.63
2022-12-01T11:29:31.598Z,101841.94
2022-12-01T11:32:38.685Z,101839.97
2022-12-01T11:35:48.725Z,101840.20
2022-12-01T11:38:57.754Z,101839.12
2022-12-01T11:42:04.188Z,101841.02
2022-12-01T11:45:29.825Z,101838.30
2022-12-01T11:48:36.449Z,101839.73
2022-12-01T11:51:41.935Z,101836.30
2022-12-01T11:54:57.182Z,101835.48
2022-12-01T11:58:03.960Z,101830.90
2022-12-01T12:01:20.457Z,101829.77
2022-12-01T12:04:36.495Z,101829.57
2022-12-01T12:07:48.776Z,101830.77
2022-12-01T12:10:59.924Z,101828.52
2022-12-01T12:14:20.504Z,101825.57
2022-12-01T12:17:39.377Z,101824.92
2022-12-01T12:20:50.625Z,101823.83
2022-12-01T12:24:06.853Z,101821.90
2022-12-01T12:27:15.897Z,101821.23
2022-12-01T12:30:23.575Z,101821.66
2022-12-01T12:33:35.781Z,101822.91
2022-12-01T12:36:45.036Z,101824.29
2022-12-01T12:39:57.687Z,101826.45
2022-12-01T12:43:13.511Z,101826.19
2022-12-01T12:46:23.997Z,101825.57
2022-12-01T12:49:34.058Z,101823.39
2022-12-01T12:52:41.848Z,101824.09
2022-12-01T12:55:50.989Z,101822.63
2022-12-01T12:58:59.323Z,101821.12
2022-12-01T13:02:07.550Z,101820.46
2022-12-01T13:05:18.042Z,101818.48
2022-12-01T13:08:25.303Z,101818.92
2022-12-01T13:11:33.623Z,101820.76
2022-12-01T13:14:40.843Z,101821.64
2022-12-01T13:17:48.424Z,101819.27
2022-12-01T13:20:55.558Z,101816.09
2022-12-01T13:24:03.866Z,101815.48
2022-12-01T13:27:16.679Z,101813.99
2022-12-01T13:30:23.234Z,101807.19
2022-12-01T13:33:28.751Z,101808.42
2022-12-01T13:36:50.205Z,101810.52
2022-12-01T13:39:56.601Z,101813.11
2022-12-01T13:43:08.965Z,101809.64
2022-12-01T13:46:22.937Z,101811.10
2022-12-01T13:49:37.131Z,101814.66
2022-12-01T13:52:49.513Z,101818.53
2022-12-01T13:55:58.024Z,101817.42
2022-12-01T13:59:03.461Z,101812.73
2022-12-01T14:02:18.155Z,101811.42
2022-12-01T14:05:41.169Z,101812.17
2022-12-01T14:08:48.608Z,101807.75
2022-12-01T14:11:58.132Z,101807.08
2022-12-01T14:15:05.217Z,101807.27
2022-12-01T14:18:21.346Z,101814.39
2022-12-01T14:21:43.694Z,101815.08
2022-12-01T14:24:53.394Z,101818.84
2022-12-01T14:28:01.505Z,101815.92
2022-12-01T14:31:07.273Z,101816.86
2022-12-01T14:34:19.080Z,101812.60
2022-12-01T14:37:37.109Z,101812.00
2022-12-01T14:40:45.872Z,101814.86
2022-12-01T14:44:05.671Z,101815.35
2022-12-01T14:47:14.339Z,101816.79
2022-12-01T14:50:24.877Z,101819.33
2022-12-01T14:53:32.264Z,101818.65
2022-12-01T14:56:38.657Z,101816.51
2022-12-01T14:59:43.970Z,101813.56
2022-12-01T15:02:52.837Z,101815.45
2022-12-01T15:05:58.341Z,101814.42
2022-12-01T15:12:37.821Z,101810.17
2022-12-01T15:15:53.093Z,101806.23
2022-12-01T15:18:59.566Z,101807.63
2022-12-01T15:22:06.128Z,101813.48
2022-12-01T15:25:16.018Z,101811.36
2022-12-01T15:28:22.611Z,101809.37
2022-12-01T15:31:28.042Z,101808.27
2022-12-01T15:34:36.186Z,101812.19
2022-12-01T15:37:44.231Z,101809.16
2022-12-01T15:44:22.774Z,101812.79
2022-12-01T15:47:37.056Z,101809.57
2022-12-01T15:50:46.372Z,101813.33
2022-12-01T15:53:53.953Z,101812.11
2022-12-01T15:57:00.256Z,101809.98
2022-12-01T16:00:08.535Z,101811.64
2022-12-01T16:03:17.729Z,101813.20
2022-12-01T16:06:24.239Z,101811.86
2022-12-01T16:09:33.212Z,101811.33
2022-12-01T16:12:39.055Z,101811.40
2022-12-01T16:15:44.829Z,101810.41
2022-12-01T16:18:55.892Z,101813.31
2022-12-01T16:22:05.082Z,101812.58
2022-12-01T16:25:18.370Z,101812.98
2022-12-01T16:28:24.880Z,101809.27
2022-12-01T16:31:32.436Z,101812.23
2022-12-01T16:34:46.335Z,101813.70
2022-12-01T16:37:52.051Z,101813.10
2022-12-01T16:40:58.313Z,101811.27
2022-12-01T16:44:27.135Z,101812.98
2022-12-01T16:47:32.692Z,101816.22
2022-12-01T16:50:38.411Z,101818.80
2022-12-01T16:53:49.660Z,101818.93
2022-12-01T16:56:56.496Z,101814.43
2022-12-01T17:00:01.799Z,101811.86
2022-12-01T17:03:07.414Z,101811.34
2022-12-01T17:06:16.482Z,101812.65
2022-12-01T17:09:22.651Z,101810.69
2022-12-01T17:12:28.075Z,101812.53
2022-12-01T17:15:33.738Z,101814.23
2022-12-01T17:18:39.899Z,101813.89
2022-12-01T17:21:45.527Z,101814.19
2022-12-01T17:24:51.287Z,101812.16
2022-12-01T17:27:56.852Z,101816.09
2022-12-01T17:31:02.840Z,101819.23
2022-12-01T17:34:08.208Z,101816.89
2022-12-01T17:37:19.053Z,101818.97
2022-12-01T17:40:26.405Z,101821.90
2022-12-01T17:43:31.740Z,101817.64
2022-12-01T17:46:38.471Z,101813.97
2022-12-01T17:49:44.349Z,101814.72
2022-12-01T17:52:49.728Z,101821.40
2022-12-01T17:55:56.380Z,101817.33
2022-12-01T17:59:01.802Z,101817.89
2022-12-01T18:02:08.500Z,101814.69
2022-12-01T18:05:14.292Z,101823.34
2022-12-01T18:08:19.931Z,101823.92
2022-12-01T18:11:25.705Z,101820.86
2022-12-01T18:14:33.492Z,101819.08
2022-12-01T18:17:38.943Z,101822.52
2022-12-01T18:20:46.687Z,101822.04
2022-12-01T18:23:52.789Z,101819.46
2022-12-01T18:27:00.672Z,101826.42
2022-12-01T18:30:07.147Z,101821.27
2022-12-01T18:33:15.039Z,101821.92
2022-12-01T18:36:21.503Z,101819.20
2022-12-01T18:39:26.842Z,101821.55
2022-12-01T18:42:32.604Z,101820.81
2022-12-01T18:45:39.962Z,101823.36
2022-12-01T18:48:46.748Z,101826.20
2022-12-01T18:51:52.297Z,101826.06
2022-12-01T18:54:57.779Z,101820.39
2022-12-01T18:58:03.105Z,101819.95
2022-12-01T19:01:19.606Z,101816.91
2022-12-01T19:04:25.543Z,101807.84
2022-12-01T19:07:31.222Z,101812.44
2022-12-01T19:10:36.710Z,101807.58
2022-12-01T19:13:42.518Z,101807.85
2022-12-01T19:16:48.110Z,101808.70
2022-12-01T19:19:53.524Z,101808.65
2022-12-01T19:22:58.846Z,101810.02
2022-12-01T19:26:06.273Z,101811.11
2022-12-01T19:29:12.729Z,101813.66
2022-12-01T19:32:18.031Z,101812.66
2022-12-01T19:35:23.619Z,101810.14
2022-12-01T19:38:36.739Z,101806.67
2022-12-01T19:41:42.870Z,101805.67
2022-12-01T19:44:48.352Z,101802.95
2022-12-01T19:47:53.906Z,101804.35
2022-12-01T19:50:59.763Z,101804.08
2022-12-01T19:54:05.938Z,101805.60
2022-12-01T19:57:11.341Z,101805.08
2022-12-01T20:00:17.251Z,101805.33
2022-12-01T20:03:22.601Z,101805.05
2022-12-01T20:06:29.155Z,101803.15
2022-12-01T20:09:35.275Z,101806.64
2022-12-01T20:12:40.809Z,101807.27
2022-12-01T20:15:46.286Z,101807.83
2022-12-01T20:18:52.326Z,101807.16
2022-12-01T20:21:57.713Z,101804.77
2022-12-01T20:25:03.080Z,101800.83
2022-12-01T20:28:08.482Z,101801.29
2022-12-01T20:31:15.176Z,101801.45
2022-12-01T20:34:21.579Z,101802.23
2022-12-01T20:37:27.010Z,101802.75
2022-12-01T20:40:33.159Z,101801.10
2022-12-01T20:43:38.435Z,101800.79
2022-12-01T20:46:45.720Z,101798.86
2022-12-01T20:49:55.445Z,101792.64
2022-12-01T20:53:03.507Z,101789.34
2022-12-01T20:56:10.934Z,101788.09
2022-12-01T20:59:16.341Z,101788.06
2022-12-01T21:02:21.852Z,101787.24
2022-12-01T21:05:28.164Z,101787.20
2022-12-01T21:08:34.035Z,101786.67
2022-12-01T21:12:10.918Z,101782.66
2022-12-01T21:15:21.539Z,101781.77
2022-12-01T21:18:28.786Z,101784.09
2022-12-01T21:21:36.361Z,101785.30
2022-12-01T21:24:43.974Z,101788.89
2022-12-01T21:27:49.943Z,101790.25
2022-12-01T21:31:02.756Z,101795.00
2022-12-01T21:34:11.575Z,101796.30
2022-12-01T21:37:20.571Z,101797.91
2022-12-01T21:40:26.928Z,101795.01
2022-12-01T21:43:37.960Z,101792.48
2022-12-01T21:46:44.530Z,101786.27
2022-12-01T21:49:51.117Z,101787.24
2022-12-01T21:52:56.656Z,101785.23
2022-12-01T21:56:02.071Z,101783.95
2022-12-01T21:59:14.514Z,101779.39
2022-12-01T22:02:31.901Z,101788.16
2022-12-01T22:05:39.206Z,101785.04
2022-12-01T22:08:46.249Z,101782.13
2022-12-01T22:11:53.153Z,101777.63
2022-12-01T22:15:01.087Z,101776.98
2022-12-01T22:18:12.844Z,101773.47
2022-12-01T22:21:34.677Z,101773.87
2022-12-01T22:24:41.360Z,101765.41
2022-12-01T22:27:46.587Z,101767.41
2022-12-01T22:30:52.594Z,101763.48
2022-12-01T22:34:03.355Z,101766.64
2022-12-01T22:37:13.771Z,101763.09
2022-12-01T22:40:36.228Z,101762.67
2022-12-01T22:43:44.470Z,101764.25
2022-12-01T22:46:49.922Z,101764.14
2022-12-01T22:49:55.376Z,101770.45
2022-12-01T22:53:03.026Z,101766.87
2022-12-01T22:56:21.538Z,101762.03
2022-12-01T22:59:32.727Z,101758.19
2022-12-01T23:02:37.985Z,101759.70
2022-12-01T23:05:43.376Z,101763.30
2022-12-01T23:08:48.741Z,101758.95
2022-12-01T23:11:57.516Z,101756.95
2022-12-01T23:15:17.011Z,101757.03
2022-12-01T23:18:23.354Z,101754.01
2022-12-01T23:21:28.601Z,101750.61
2022-12-01T23:24:34.571Z,101747.44
2022-12-01T23:27:39.843Z,101747.44
2022-12-01T23:30:46.193Z,101746.13
2022-12-01T23:33:51.690Z,101743.82
2022-12-01T23:36:57.271Z,101745.86
2022-12-01T23:40:03.454Z,101742.63
2022-12-01T23:43:14.010Z,101744.37
2022-12-01T23:46:20.702Z,101745.91
2022-12-01T23:49:28.758Z,101745.36
2022-12-01T23:52:36.107Z,101740.06
2022-12-01T23:55:41.575Z,101738.90
2022-12-01T23:58:46.997Z,101736.96
